sensor_id;sensor_type;location;lat;lon;timestamp;P1;durP1;ratioP1;P2;durP2;ratioP2
769;SDS011;368;48.698;9.116;2022-07-29T00:00:02;11.13;;;10.23;;
769;SDS011;368;48.698;9.116;2022-07-29T00:02:30;10.73;;;9.93;;
769;SDS011;368;48.698;9.116;2022-07-29T00:04:59;11.47;;;10.47;;
769;SDS011;368;48.698;9.116;2022-07-29T00:07:26;10.53;;;9.73;;
769;SDS011;368;48.698;9.116;2022-07-29T00:09:53;11.27;;;10.37;;
769;SDS011;368;48.698;9.116;2022-07-29T00:12:20;11.67;;;10.57;;
769;SDS011;368;48.698;9.116;2022-07-29T00:14:47;11.53;;;10.47;;
769;SDS011;368;48.698;9.116;2022-07-29T00:17:14;10.90;;;10.07;;
769;SDS011;368;48.698;9.116;2022-07-29T00:19:41;10.30;;;9.50;;
769;SDS011;368;48.698;9.116;2022-07-29T00:22:09;11.53;;;10.43;;
769;SDS011;368;48.698;9.116;2022-07-29T00:24:36;10.70;;;9.90;;
769;SDS011;368;48.698;9.116;2022-07-29T00:27:03;11.90;;;10.80;;
769;SDS011;368;48.698;9.116;2022-07-29T00:29:29;11.50;;;10.50;;
769;SDS011;368;48.698;9.116;2022-07-29T00:31:56;10.53;;;9.63;;
769;SDS011;368;48.698;9.116;2022-07-29T00:34:23;11.13;;;10.10;;
769;SDS011;368;48.698;9.116;2022-07-29T00:37:07;9.83;;;8.93;;
769;SDS011;368;48.698;9.116;2022-07-29T00:39:35;12.27;;;10.40;;
769;SDS011;368;48.698;9.116;2022-07-29T00:42:02;10.93;;;10.03;;
769;SDS011;368;48.698;9.116;2022-07-29T00:44:29;11.03;;;10.20;;
769;SDS011;368;48.698;9.116;2022-07-29T00:46:56;11.00;;;10.20;;
769;SDS011;368;48.698;9.116;2022-07-29T00:49:23;11.60;;;10.57;;
769;SDS011;368;48.698;9.116;2022-07-29T00:51:49;11.07;;;10.07;;
769;SDS011;368;48.698;9.116;2022-07-29T00:54:17;11.00;;;10.20;;
769;SDS011;368;48.698;9.116;2022-07-29T00:56:45;10.57;;;9.77;;
769;SDS011;368;48.698;9.116;2022-07-29T00:59:12;9.40;;;8.73;;
769;SDS011;368;48.698;9.116;2022-07-29T01:01:38;10.43;;;9.50;;
769;SDS011;368;48.698;9.116;2022-07-29T01:04:05;11.40;;;10.40;;
769;SDS011;368;48.698;9.116;2022-07-29T01:06:33;10.90;;;10.10;;
769;SDS011;368;48.698;9.116;2022-07-29T01:09:00;10.30;;;9.50;;
769;SDS011;368;48.698;9.116;2022-07-29T01:11:28;10.60;;;9.60;;
769;SDS011;368;48.698;9.116;2022-07-29T01:13:56;9.93;;;9.23;;
769;SDS011;368;48.698;9.116;2022-07-29T01:16:25;10.73;;;9.90;;
769;SDS011;368;48.698;9.116;2022-07-29T01:18:57;10.03;;;9.23;;
769;SDS011;368;48.698;9.116;2022-07-29T01:21:35;9.50;;;8.80;;
769;SDS011;368;48.698;9.116;2022-07-29T01:27:12;10.03;;;9.23;;
769;SDS011;368;48.698;9.116;2022-07-29T01:29:54;9.70;;;8.90;;
769;SDS011;368;48.698;9.116;2022-07-29T01:32:24;10.17;;;9.27;;
769;SDS011;368;48.698;9.116;2022-07-29T01:34:54;10.37;;;9.57;;
769;SDS011;368;48.698;9.116;2022-07-29T01:37:25;10.60;;;9.80;;
769;SDS011;368;48.698;9.116;2022-07-29T01:39:56;10.10;;;9.20;;
769;SDS011;368;48.698;9.116;2022-07-29T01:42:26;9.83;;;9.10;;
769;SDS011;368;48.698;9.116;2022-07-29T01:44:59;9.50;;;8.60;;
769;SDS011;368;48.698;9.116;2022-07-29T01:47:31;10.67;;;9.17;;
769;SDS011;368;48.698;9.116;2022-07-29T01:50:07;10.43;;;9.53;;
769;SDS011;368;48.698;9.116;2022-07-29T01:52:37;10.03;;;9.20;;
769;SDS011;368;48.698;9.116;2022-07-29T01:55:09;10.23;;;9.43;;
769;SDS011;368;48.698;9.116;2022-07-29T01:57:40;9.63;;;8.83;;
769;SDS011;368;48.698;9.116;2022-07-29T02:00:12;9.90;;;9.17;;
769;SDS011;368;48.698;9.116;2022-07-29T02:02:40;9.50;;;8.80;;
769;SDS011;368;48.698;9.116;2022-07-29T02:05:10;10.33;;;9.43;;
769;SDS011;368;48.698;9.116;2022-07-29T02:07:38;8.73;;;8.10;;
769;SDS011;368;48.698;9.116;2022-07-29T02:10:08;9.00;;;8.30;;
769;SDS011;368;48.698;9.116;2022-07-29T02:12:36;8.40;;;7.70;;
769;SDS011;368;48.698;9.116;2022-07-29T02:15:04;9.43;;;8.70;;
769;SDS011;368;48.698;9.116;2022-07-29T02:17:35;9.00;;;8.20;;
769;SDS011;368;48.698;9.116;2022-07-29T02:20:07;9.20;;;8.60;;
769;SDS011;368;48.698;9.116;2022-07-29T02:22:36;9.40;;;8.70;;
769;SDS011;368;48.698;9.116;2022-07-29T02:25:05;9.67;;;8.77;;
769;SDS011;368;48.698;9.116;2022-07-29T02:27:34;9.37;;;8.57;;
769;SDS011;368;48.698;9.116;2022-07-29T02:30:03;8.00;;;7.40;;
769;SDS011;368;48.698;9.116;2022-07-29T02:32:32;8.17;;;7.53;;
769;SDS011;368;48.698;9.116;2022-07-29T02:35:03;11.63;;;8.20;;
769;SDS011;368;48.698;9.116;2022-07-29T02:37:31;7.50;;;7.00;;
769;SDS011;368;48.698;9.116;2022-07-29T02:39:58;9.57;;;8.77;;
769;SDS011;368;48.698;9.116;2022-07-29T02:42:26;10.00;;;9.00;;
769;SDS011;368;48.698;9.116;2022-07-29T02:44:54;8.50;;;7.77;;
769;SDS011;368;48.698;9.116;2022-07-29T02:47:22;8.70;;;7.90;;
769;SDS011;368;48.698;9.116;2022-07-29T02:49:56;8.50;;;7.90;;
769;SDS011;368;48.698;9.116;2022-07-29T02:52:26;8.10;;;7.30;;
769;SDS011;368;48.698;9.116;2022-07-29T02:54:58;8.20;;;7.50;;
769;SDS011;368;48.698;9.116;2022-07-29T02:57:30;8.70;;;8.00;;
769;SDS011;368;48.698;9.116;2022-07-29T03:00:00;8.10;;;7.50;;
769;SDS011;368;48.698;9.116;2022-07-29T03:02:31;7.40;;;6.90;;
769;SDS011;368;48.698;9.116;2022-07-29T03:05:03;7.40;;;6.90;;
769;SDS011;368;48.698;9.116;2022-07-29T03:07:32;7.50;;;7.00;;
769;SDS011;368;48.698;9.116;2022-07-29T03:10:01;8.00;;;7.20;;
769;SDS011;368;48.698;9.116;2022-07-29T03:12:29;7.90;;;7.20;;
769;SDS011;368;48.698;9.116;2022-07-29T03:14:57;7.63;;;7.03;;
769;SDS011;368;48.698;9.116;2022-07-29T03:17:26;8.33;;;7.37;;
769;SDS011;368;48.698;9.116;2022-07-29T03:19:54;8.67;;;8.00;;
769;SDS011;368;48.698;9.116;2022-07-29T03:22:22;8.70;;;8.10;;
769;SDS011;368;48.698;9.116;2022-07-29T03:24:50;8.60;;;7.90;;
769;SDS011;368;48.698;9.116;2022-07-29T03:27:16;8.87;;;8.10;;
769;SDS011;368;48.698;9.116;2022-07-29T03:29:43;9.37;;;8.57;;
769;SDS011;368;48.698;9.116;2022-07-29T03:32:10;8.20;;;7.50;;
769;SDS011;368;48.698;9.116;2022-07-29T03:34:37;7.90;;;7.30;;
769;SDS011;368;48.698;9.116;2022-07-29T03:37:04;7.97;;;7.33;;
769;SDS011;368;48.698;9.116;2022-07-29T03:39:35;7.63;;;7.03;;
769;SDS011;368;48.698;9.116;2022-07-29T03:42:05;8.37;;;7.67;;
769;SDS011;368;48.698;9.116;2022-07-29T03:44:34;8.57;;;7.60;;
769;SDS011;368;48.698;9.116;2022-07-29T03:47:03;8.10;;;7.47;;
769;SDS011;368;48.698;9.116;2022-07-29T03:49:32;8.30;;;7.70;;
769;SDS011;368;48.698;9.116;2022-07-29T03:52:03;8.60;;;7.90;;
769;SDS011;368;48.698;9.116;2022-07-29T03:54:31;8.60;;;7.90;;
769;SDS011;368;48.698;9.116;2022-07-29T03:56:59;8.13;;;7.47;;
769;SDS011;368;48.698;9.116;2022-07-29T03:59:27;7.50;;;7.00;;
769;SDS011;368;48.698;9.116;2022-07-29T04:01:55;8.60;;;7.90;;
769;SDS011;368;48.698;9.116;2022-07-29T04:04:23;7.90;;;7.17;;
769;SDS011;368;48.698;9.116;2022-07-29T04:06:51;9.17;;;8.47;;
769;SDS011;368;48.698;9.116;2022-07-29T04:09:17;7.87;;;7.27;;
769;SDS011;368;48.698;9.116;2022-07-29T04:11:44;8.40;;;7.70;;
769;SDS011;368;48.698;9.116;2022-07-29T04:14:13;7.60;;;7.10;;
769;SDS011;368;48.698;9.116;2022-07-29T04:16:39;8.20;;;7.10;;
769;SDS011;368;48.698;9.116;2022-07-29T04:19:06;7.47;;;6.97;;
769;SDS011;368;48.698;9.116;2022-07-29T04:21:36;8.30;;;7.60;;
769;SDS011;368;48.698;9.116;2022-07-29T04:24:04;8.53;;;7.90;;
769;SDS011;368;48.698;9.116;2022-07-29T04:26:31;7.87;;;7.27;;
769;SDS011;368;48.698;9.116;2022-07-29T04:28:58;7.80;;;7.20;;
769;SDS011;368;48.698;9.116;2022-07-29T04:31:27;8.40;;;7.80;;
769;SDS011;368;48.698;9.116;2022-07-29T04:33:53;8.10;;;7.50;;
769;SDS011;368;48.698;9.116;2022-07-29T04:36:20;7.80;;;7.13;;
769;SDS011;368;48.698;9.116;2022-07-29T04:38:47;7.23;;;6.63;;
769;SDS011;368;48.698;9.116;2022-07-29T04:41:14;7.50;;;6.90;;
769;SDS011;368;48.698;9.116;2022-07-29T04:43:40;7.73;;;7.03;;
769;SDS011;368;48.698;9.116;2022-07-29T04:46:07;8.47;;;7.77;;
769;SDS011;368;48.698;9.116;2022-07-29T04:48:35;7.53;;;6.93;;
769;SDS011;368;48.698;9.116;2022-07-29T04:51:02;6.83;;;6.33;;
769;SDS011;368;48.698;9.116;2022-07-29T04:53:29;7.23;;;6.73;;
769;SDS011;368;48.698;9.116;2022-07-29T04:55:56;7.37;;;6.77;;
769;SDS011;368;48.698;9.116;2022-07-29T04:58:23;7.87;;;7.17;;
769;SDS011;368;48.698;9.116;2022-07-29T05:00:50;7.50;;;6.90;;
769;SDS011;368;48.698;9.116;2022-07-29T05:03:16;6.30;;;5.90;;
769;SDS011;368;48.698;9.116;2022-07-29T05:05:45;6.07;;;5.67;;
769;SDS011;368;48.698;9.116;2022-07-29T05:08:12;5.83;;;5.33;;
769;SDS011;368;48.698;9.116;2022-07-29T05:10:39;6.67;;;6.17;;
769;SDS011;368;48.698;9.116;2022-07-29T05:13:06;5.60;;;5.13;;
769;SDS011;368;48.698;9.116;2022-07-29T05:15:33;6.00;;;5.60;;
769;SDS011;368;48.698;9.116;2022-07-29T05:18:01;5.83;;;5.27;;
769;SDS011;368;48.698;9.116;2022-07-29T05:20:28;5.00;;;4.70;;
769;SDS011;368;48.698;9.116;2022-07-29T05:22:57;5.13;;;4.63;;
769;SDS011;368;48.698;9.116;2022-07-29T05:25:25;5.17;;;4.77;;
769;SDS011;368;48.698;9.116;2022-07-29T05:27:52;4.80;;;4.47;;
769;SDS011;368;48.698;9.116;2022-07-29T05:30:19;5.03;;;4.63;;
769;SDS011;368;48.698;9.116;2022-07-29T05:32:46;4.97;;;4.67;;
769;SDS011;368;48.698;9.116;2022-07-29T05:35:13;5.03;;;4.63;;
769;SDS011;368;48.698;9.116;2022-07-29T05:37:41;4.83;;;4.53;;
769;SDS011;368;48.698;9.116;2022-07-29T05:40:09;5.00;;;4.70;;
769;SDS011;368;48.698;9.116;2022-07-29T05:42:36;4.97;;;4.57;;
769;SDS011;368;48.698;9.116;2022-07-29T05:45:03;5.20;;;4.80;;
769;SDS011;368;48.698;9.116;2022-07-29T05:47:31;4.70;;;4.40;;
769;SDS011;368;48.698;9.116;2022-07-29T05:49:58;4.80;;;4.37;;
769;SDS011;368;48.698;9.116;2022-07-29T05:52:25;4.87;;;4.47;;
769;SDS011;368;48.698;9.116;2022-07-29T05:54:52;4.93;;;4.53;;
769;SDS011;368;48.698;9.116;2022-07-29T05:57:21;5.07;;;4.23;;
769;SDS011;368;48.698;9.116;2022-07-29T05:59:48;4.50;;;4.10;;
769;SDS011;368;48.698;9.116;2022-07-29T06:02:16;3.90;;;3.60;;
769;SDS011;368;48.698;9.116;2022-07-29T06:04:43;5.23;;;4.83;;
769;SDS011;368;48.698;9.116;2022-07-29T06:07:10;4.80;;;4.40;;
769;SDS011;368;48.698;9.116;2022-07-29T06:09:37;4.60;;;4.13;;
769;SDS011;368;48.698;9.116;2022-07-29T06:12:04;4.57;;;4.17;;
769;SDS011;368;48.698;9.116;2022-07-29T06:14:32;4.67;;;4.37;;
769;SDS011;368;48.698;9.116;2022-07-29T06:17:00;4.60;;;4.20;;
769;SDS011;368;48.698;9.116;2022-07-29T06:19:27;4.87;;;4.47;;
769;SDS011;368;48.698;9.116;2022-07-29T06:21:53;4.73;;;4.43;;
769;SDS011;368;48.698;9.116;2022-07-29T06:24:20;4.40;;;4.00;;
769;SDS011;368;48.698;9.116;2022-07-29T06:26:47;4.30;;;4.00;;
769;SDS011;368;48.698;9.116;2022-07-29T06:29:14;6.40;;;4.17;;
769;SDS011;368;48.698;9.116;2022-07-29T06:31:42;4.40;;;4.10;;
769;SDS011;368;48.698;9.116;2022-07-29T06:34:09;4.30;;;3.97;;
769;SDS011;368;48.698;9.116;2022-07-29T06:36:35;5.23;;;4.50;;
769;SDS011;368;48.698;9.116;2022-07-29T06:39:03;4.70;;;4.30;;
769;SDS011;368;48.698;9.116;2022-07-29T06:41:31;4.37;;;4.07;;
769;SDS011;368;48.698;9.116;2022-07-29T06:43:58;4.80;;;4.47;;
769;SDS011;368;48.698;9.116;2022-07-29T06:46:25;4.60;;;4.30;;
769;SDS011;368;48.698;9.116;2022-07-29T06:48:54;5.20;;;4.87;;
769;SDS011;368;48.698;9.116;2022-07-29T06:51:21;4.47;;;4.07;;
769;SDS011;368;48.698;9.116;2022-07-29T06:53:48;4.90;;;4.57;;
769;SDS011;368;48.698;9.116;2022-07-29T06:56:15;5.20;;;4.80;;
769;SDS011;368;48.698;9.116;2022-07-29T06:58:42;4.80;;;3.97;;
769;SDS011;368;48.698;9.116;2022-07-29T07:01:09;4.70;;;4.40;;
769;SDS011;368;48.698;9.116;2022-07-29T07:03:36;5.73;;;5.23;;
769;SDS011;368;48.698;9.116;2022-07-29T07:06:05;5.53;;;5.03;;
769;SDS011;368;48.698;9.116;2022-07-29T07:08:31;5.83;;;5.33;;
769;SDS011;368;48.698;9.116;2022-07-29T07:10:58;5.00;;;4.60;;
769;SDS011;368;48.698;9.116;2022-07-29T07:13:25;7.30;;;5.37;;
769;SDS011;368;48.698;9.116;2022-07-29T07:15:53;5.70;;;5.30;;
769;SDS011;368;48.698;9.116;2022-07-29T07:18:19;5.70;;;5.30;;
769;SDS011;368;48.698;9.116;2022-07-29T07:20:46;5.40;;;4.90;;
769;SDS011;368;48.698;9.116;2022-07-29T07:23:15;5.40;;;5.00;;
769;SDS011;368;48.698;9.116;2022-07-29T07:25:41;6.30;;;5.80;;
769;SDS011;368;48.698;9.116;2022-07-29T07:28:08;6.23;;;5.83;;
769;SDS011;368;48.698;9.116;2022-07-29T07:30:35;5.27;;;4.87;;
769;SDS011;368;48.698;9.116;2022-07-29T07:33:02;6.37;;;5.70;;
769;SDS011;368;48.698;9.116;2022-07-29T07:35:29;6.80;;;6.20;;
769;SDS011;368;48.698;9.116;2022-07-29T07:37:56;6.10;;;5.57;;
769;SDS011;368;48.698;9.116;2022-07-29T07:40:24;6.43;;;5.93;;
769;SDS011;368;48.698;9.116;2022-07-29T07:42:51;5.90;;;5.40;;
769;SDS011;368;48.698;9.116;2022-07-29T07:45:19;5.97;;;5.47;;
769;SDS011;368;48.698;9.116;2022-07-29T07:47:46;5.77;;;5.20;;
769;SDS011;368;48.698;9.116;2022-07-29T07:50:15;6.10;;;5.70;;
769;SDS011;368;48.698;9.116;2022-07-29T07:52:46;5.80;;;5.30;;
769;SDS011;368;48.698;9.116;2022-07-29T07:55:15;5.83;;;5.43;;
769;SDS011;368;48.698;9.116;2022-07-29T07:57:43;6.70;;;6.10;;
769;SDS011;368;48.698;9.116;2022-07-29T08:00:11;6.13;;;5.67;;
769;SDS011;368;48.698;9.116;2022-07-29T08:02:38;6.20;;;5.60;;
769;SDS011;368;48.698;9.116;2022-07-29T08:05:07;6.23;;;5.60;;
769;SDS011;368;48.698;9.116;2022-07-29T08:07:35;5.83;;;5.10;;
769;SDS011;368;48.698;9.116;2022-07-29T08:10:02;5.60;;;4.93;;
769;SDS011;368;48.698;9.116;2022-07-29T08:12:29;5.63;;;5.13;;
769;SDS011;368;48.698;9.116;2022-07-29T08:14:57;6.43;;;5.77;;
769;SDS011;368;48.698;9.116;2022-07-29T08:17:25;6.13;;;5.63;;
769;SDS011;368;48.698;9.116;2022-07-29T08:19:52;5.57;;;5.17;;
769;SDS011;368;48.698;9.116;2022-07-29T08:22:20;5.03;;;4.60;;
769;SDS011;368;48.698;9.116;2022-07-29T08:24:47;6.60;;;4.93;;
769;SDS011;368;48.698;9.116;2022-07-29T08:27:19;5.53;;;5.13;;
769;SDS011;368;48.698;9.116;2022-07-29T08:29:46;5.87;;;5.40;;
769;SDS011;368;48.698;9.116;2022-07-29T08:32:14;6.80;;;5.00;;
769;SDS011;368;48.698;9.116;2022-07-29T08:34:41;4.83;;;4.43;;
769;SDS011;368;48.698;9.116;2022-07-29T08:37:12;5.50;;;5.20;;
769;SDS011;368;48.698;9.116;2022-07-29T08:39:39;5.73;;;5.33;;
769;SDS011;368;48.698;9.116;2022-07-29T08:42:06;5.70;;;5.20;;
769;SDS011;368;48.698;9.116;2022-07-29T08:44:34;5.47;;;5.07;;
769;SDS011;368;48.698;9.116;2022-07-29T08:47:02;5.47;;;5.07;;
769;SDS011;368;48.698;9.116;2022-07-29T08:49:31;6.07;;;4.70;;
769;SDS011;368;48.698;9.116;2022-07-29T08:51:59;5.00;;;4.50;;
769;SDS011;368;48.698;9.116;2022-07-29T08:54:26;6.03;;;5.53;;
769;SDS011;368;48.698;9.116;2022-07-29T08:56:55;6.40;;;5.80;;
769;SDS011;368;48.698;9.116;2022-07-29T08:59:22;6.43;;;5.93;;
769;SDS011;368;48.698;9.116;2022-07-29T09:01:52;5.40;;;4.90;;
769;SDS011;368;48.698;9.116;2022-07-29T09:04:20;5.53;;;5.10;;
769;SDS011;368;48.698;9.116;2022-07-29T09:06:51;5.13;;;4.73;;
769;SDS011;368;48.698;9.116;2022-07-29T09:09:20;5.40;;;4.90;;
769;SDS011;368;48.698;9.116;2022-07-29T09:11:47;4.97;;;4.60;;
769;SDS011;368;48.698;9.116;2022-07-29T09:14:14;5.23;;;4.83;;
769;SDS011;368;48.698;9.116;2022-07-29T09:16:48;4.63;;;4.33;;
769;SDS011;368;48.698;9.116;2022-07-29T09:19:27;5.13;;;4.13;;
769;SDS011;368;48.698;9.116;2022-07-29T09:21:57;4.77;;;4.47;;
769;SDS011;368;48.698;9.116;2022-07-29T09:24:24;4.50;;;4.20;;
769;SDS011;368;48.698;9.116;2022-07-29T09:29:57;5.30;;;4.80;;
769;SDS011;368;48.698;9.116;2022-07-29T09:32:24;4.67;;;4.13;;
769;SDS011;368;48.698;9.116;2022-07-29T09:37:42;5.23;;;4.83;;
769;SDS011;368;48.698;9.116;2022-07-29T09:40:13;5.17;;;4.77;;
769;SDS011;368;48.698;9.116;2022-07-29T09:42:42;5.80;;;5.40;;
769;SDS011;368;48.698;9.116;2022-07-29T09:45:09;4.97;;;4.57;;
769;SDS011;368;48.698;9.116;2022-07-29T09:47:40;5.27;;;4.77;;
769;SDS011;368;48.698;9.116;2022-07-29T09:50:10;5.23;;;4.70;;
769;SDS011;368;48.698;9.116;2022-07-29T09:52:45;5.67;;;4.80;;
769;SDS011;368;48.698;9.116;2022-07-29T09:55:13;5.30;;;4.90;;
769;SDS011;368;48.698;9.116;2022-07-29T09:57:41;5.50;;;4.90;;
769;SDS011;368;48.698;9.116;2022-07-29T10:00:09;6.33;;;4.90;;
769;SDS011;368;48.698;9.116;2022-07-29T10:02:38;5.47;;;5.07;;
769;SDS011;368;48.698;9.116;2022-07-29T10:05:15;5.20;;;4.70;;
769;SDS011;368;48.698;9.116;2022-07-29T10:07:46;5.43;;;4.93;;
769;SDS011;368;48.698;9.116;2022-07-29T10:10:21;5.13;;;4.73;;
769;SDS011;368;48.698;9.116;2022-07-29T10:12:50;5.20;;;4.80;;
769;SDS011;368;48.698;9.116;2022-07-29T10:15:20;6.20;;;4.90;;
769;SDS011;368;48.698;9.116;2022-07-29T10:17:48;5.47;;;4.97;;
769;SDS011;368;48.698;9.116;2022-07-29T10:20:15;4.90;;;4.50;;
769;SDS011;368;48.698;9.116;2022-07-29T10:22:43;5.10;;;4.60;;
769;SDS011;368;48.698;9.116;2022-07-29T10:25:14;4.93;;;4.53;;
769;SDS011;368;48.698;9.116;2022-07-29T10:27:43;4.90;;;4.40;;
769;SDS011;368;48.698;9.116;2022-07-29T10:30:11;5.30;;;4.70;;
769;SDS011;368;48.698;9.116;2022-07-29T10:32:51;5.70;;;5.20;;
769;SDS011;368;48.698;9.116;2022-07-29T10:35:29;5.30;;;4.80;;
769;SDS011;368;48.698;9.116;2022-07-29T10:38:21;4.67;;;4.27;;
769;SDS011;368;48.698;9.116;2022-07-29T10:41:11;6.37;;;5.87;;
769;SDS011;368;48.698;9.116;2022-07-29T10:43:54;7.07;;;5.83;;
769;SDS011;368;48.698;9.116;2022-07-29T10:46:24;5.90;;;5.50;;
769;SDS011;368;48.698;9.116;2022-07-29T10:49:04;5.27;;;4.80;;
769;SDS011;368;48.698;9.116;2022-07-29T10:54:48;6.10;;;5.67;;
769;SDS011;368;48.698;9.116;2022-07-29T10:57:25;6.00;;;5.43;;
769;SDS011;368;48.698;9.116;2022-07-29T11:02:52;6.63;;;6.03;;
769;SDS011;368;48.698;9.116;2022-07-29T11:05:21;7.07;;;5.73;;
769;SDS011;368;48.698;9.116;2022-07-29T11:10:46;6.47;;;5.30;;
769;SDS011;368;48.698;9.116;2022-07-29T11:16:15;11.47;;;8.03;;
769;SDS011;368;48.698;9.116;2022-07-29T11:21:47;7.83;;;6.43;;
769;SDS011;368;48.698;9.116;2022-07-29T11:24:16;9.23;;;8.00;;
769;SDS011;368;48.698;9.116;2022-07-29T11:26:45;10.40;;;8.27;;
769;SDS011;368;48.698;9.116;2022-07-29T11:29:48;9.73;;;7.83;;
769;SDS011;368;48.698;9.116;2022-07-29T11:32:20;9.00;;;8.20;;
769;SDS011;368;48.698;9.116;2022-07-29T11:34:49;11.70;;;9.13;;
769;SDS011;368;48.698;9.116;2022-07-29T11:37:36;8.93;;;8.03;;
769;SDS011;368;48.698;9.116;2022-07-29T11:42:48;9.03;;;8.27;;
769;SDS011;368;48.698;9.116;2022-07-29T11:45:18;9.73;;;8.83;;
769;SDS011;368;48.698;9.116;2022-07-29T11:47:53;9.83;;;8.93;;
769;SDS011;368;48.698;9.116;2022-07-29T11:50:27;9.80;;;9.00;;
769;SDS011;368;48.698;9.116;2022-07-29T11:52:58;9.97;;;9.17;;
769;SDS011;368;48.698;9.116;2022-07-29T11:55:26;11.80;;;10.50;;
769;SDS011;368;48.698;9.116;2022-07-29T11:57:54;9.93;;;9.03;;
769;SDS011;368;48.698;9.116;2022-07-29T12:00:26;10.47;;;9.47;;
769;SDS011;368;48.698;9.116;2022-07-29T12:02:54;9.90;;;9.00;;
769;SDS011;368;48.698;9.116;2022-07-29T12:05:30;10.80;;;9.90;;
769;SDS011;368;48.698;9.116;2022-07-29T12:08:11;11.27;;;10.33;;
769;SDS011;368;48.698;9.116;2022-07-29T12:10:40;11.20;;;10.13;;
769;SDS011;368;48.698;9.116;2022-07-29T12:13:07;10.73;;;9.50;;
769;SDS011;368;48.698;9.116;2022-07-29T12:15:36;10.20;;;9.20;;
769;SDS011;368;48.698;9.116;2022-07-29T12:18:13;11.23;;;10.23;;
769;SDS011;368;48.698;9.116;2022-07-29T12:20:41;8.30;;;7.60;;
769;SDS011;368;48.698;9.116;2022-07-29T12:23:08;8.37;;;7.60;;
769;SDS011;368;48.698;9.116;2022-07-29T12:25:37;9.43;;;8.53;;
769;SDS011;368;48.698;9.116;2022-07-29T12:28:06;9.00;;;8.37;;
769;SDS011;368;48.698;9.116;2022-07-29T12:30:36;8.83;;;8.20;;
769;SDS011;368;48.698;9.116;2022-07-29T12:33:11;8.80;;;7.57;;
769;SDS011;368;48.698;9.116;2022-07-29T12:35:41;9.10;;;8.20;;
769;SDS011;368;48.698;9.116;2022-07-29T12:38:09;9.70;;;8.90;;
769;SDS011;368;48.698;9.116;2022-07-29T12:43:15;9.07;;;8.33;;
769;SDS011;368;48.698;9.116;2022-07-29T12:45:46;10.47;;;8.70;;
769;SDS011;368;48.698;9.116;2022-07-29T12:48:15;8.73;;;8.00;;
769;SDS011;368;48.698;9.116;2022-07-29T12:50:55;7.70;;;7.10;;
769;SDS011;368;48.698;9.116;2022-07-29T12:53:23;8.77;;;7.97;;
769;SDS011;368;48.698;9.116;2022-07-29T12:55:52;8.60;;;7.90;;
769;SDS011;368;48.698;9.116;2022-07-29T12:58:27;9.10;;;8.30;;
769;SDS011;368;48.698;9.116;2022-07-29T13:01:00;9.50;;;8.60;;
769;SDS011;368;48.698;9.116;2022-07-29T13:03:29;10.20;;;9.30;;
769;SDS011;368;48.698;9.116;2022-07-29T13:06:07;9.57;;;8.87;;
769;SDS011;368;48.698;9.116;2022-07-29T13:08:58;9.33;;;8.63;;
769;SDS011;368;48.698;9.116;2022-07-29T13:11:29;9.67;;;8.87;;
769;SDS011;368;48.698;9.116;2022-07-29T13:13:57;9.73;;;8.80;;
769;SDS011;368;48.698;9.116;2022-07-29T13:16:25;9.67;;;8.97;;
769;SDS011;368;48.698;9.116;2022-07-29T13:19:05;9.40;;;8.50;;
769;SDS011;368;48.698;9.116;2022-07-29T13:21:33;11.07;;;10.17;;
769;SDS011;368;48.698;9.116;2022-07-29T13:24:00;9.63;;;8.73;;
769;SDS011;368;48.698;9.116;2022-07-29T13:26:27;11.00;;;10.10;;
769;SDS011;368;48.698;9.116;2022-07-29T13:28:54;8.87;;;8.07;;
769;SDS011;368;48.698;9.116;2022-07-29T13:31:21;9.27;;;8.50;;
769;SDS011;368;48.698;9.116;2022-07-29T13:33:49;9.03;;;8.30;;
769;SDS011;368;48.698;9.116;2022-07-29T13:36:16;9.17;;;8.47;;
769;SDS011;368;48.698;9.116;2022-07-29T13:38:43;8.87;;;8.07;;
769;SDS011;368;48.698;9.116;2022-07-29T13:41:10;7.87;;;7.17;;
769;SDS011;368;48.698;9.116;2022-07-29T13:43:37;9.20;;;8.40;;
769;SDS011;368;48.698;9.116;2022-07-29T13:46:04;9.17;;;8.47;;
769;SDS011;368;48.698;9.116;2022-07-29T13:48:31;10.63;;;9.57;;
769;SDS011;368;48.698;9.116;2022-07-29T13:50:59;9.43;;;8.43;;
769;SDS011;368;48.698;9.116;2022-07-29T13:53:26;9.20;;;8.40;;
769;SDS011;368;48.698;9.116;2022-07-29T13:55:53;9.43;;;8.50;;
769;SDS011;368;48.698;9.116;2022-07-29T13:58:20;9.43;;;8.43;;
769;SDS011;368;48.698;9.116;2022-07-29T14:00:49;8.90;;;8.20;;
769;SDS011;368;48.698;9.116;2022-07-29T14:03:16;9.10;;;8.30;;
769;SDS011;368;48.698;9.116;2022-07-29T14:05:43;9.93;;;9.27;;
769;SDS011;368;48.698;9.116;2022-07-29T14:08:11;9.20;;;8.50;;
769;SDS011;368;48.698;9.116;2022-07-29T14:10:39;9.40;;;8.70;;
769;SDS011;368;48.698;9.116;2022-07-29T14:13:06;8.87;;;8.17;;
769;SDS011;368;48.698;9.116;2022-07-29T14:15:32;9.03;;;8.20;;
769;SDS011;368;48.698;9.116;2022-07-29T14:17:59;10.73;;;8.87;;
769;SDS011;368;48.698;9.116;2022-07-29T14:20:27;9.37;;;8.57;;
769;SDS011;368;48.698;9.116;2022-07-29T14:22:54;9.50;;;8.70;;
769;SDS011;368;48.698;9.116;2022-07-29T14:25:23;10.63;;;9.60;;
769;SDS011;368;48.698;9.116;2022-07-29T14:27:50;9.50;;;8.80;;
769;SDS011;368;48.698;9.116;2022-07-29T14:30:18;9.27;;;8.67;;
769;SDS011;368;48.698;9.116;2022-07-29T14:32:44;9.63;;;8.97;;
769;SDS011;368;48.698;9.116;2022-07-29T14:35:11;9.03;;;8.33;;
769;SDS011;368;48.698;9.116;2022-07-29T14:37:38;9.33;;;8.57;;
769;SDS011;368;48.698;9.116;2022-07-29T14:40:05;9.77;;;9.07;;
769;SDS011;368;48.698;9.116;2022-07-29T14:42:34;9.60;;;8.80;;
769;SDS011;368;48.698;9.116;2022-07-29T14:45:02;8.50;;;7.80;;
769;SDS011;368;48.698;9.116;2022-07-29T14:47:29;9.30;;;8.40;;
769;SDS011;368;48.698;9.116;2022-07-29T14:49:56;8.93;;;8.13;;
769;SDS011;368;48.698;9.116;2022-07-29T14:52:23;9.57;;;8.73;;
769;SDS011;368;48.698;9.116;2022-07-29T14:54:50;8.67;;;8.07;;
769;SDS011;368;48.698;9.116;2022-07-29T14:57:16;8.87;;;8.13;;
769;SDS011;368;48.698;9.116;2022-07-29T14:59:44;9.80;;;9.00;;
769;SDS011;368;48.698;9.116;2022-07-29T15:02:11;9.83;;;9.03;;
769;SDS011;368;48.698;9.116;2022-07-29T15:04:38;10.20;;;9.30;;
769;SDS011;368;48.698;9.116;2022-07-29T15:07:05;8.77;;;8.07;;
769;SDS011;368;48.698;9.116;2022-07-29T15:09:32;11.30;;;9.17;;
769;SDS011;368;48.698;9.116;2022-07-29T15:11:59;9.97;;;9.07;;
769;SDS011;368;48.698;9.116;2022-07-29T15:14:27;10.83;;;9.90;;
769;SDS011;368;48.698;9.116;2022-07-29T15:16:55;9.83;;;8.90;;
769;SDS011;368;48.698;9.116;2022-07-29T15:19:22;9.53;;;8.73;;
769;SDS011;368;48.698;9.116;2022-07-29T15:21:49;10.07;;;9.17;;
769;SDS011;368;48.698;9.116;2022-07-29T15:24:16;9.20;;;8.30;;
769;SDS011;368;48.698;9.116;2022-07-29T15:26:43;9.50;;;8.70;;
769;SDS011;368;48.698;9.116;2022-07-29T15:29:11;9.40;;;8.67;;
769;SDS011;368;48.698;9.116;2022-07-29T15:31:38;10.80;;;10.00;;
769;SDS011;368;48.698;9.116;2022-07-29T15:34:06;10.67;;;9.57;;
769;SDS011;368;48.698;9.116;2022-07-29T15:36:33;8.97;;;8.27;;
769;SDS011;368;48.698;9.116;2022-07-29T15:39:00;9.20;;;8.60;;
769;SDS011;368;48.698;9.116;2022-07-29T15:41:27;10.13;;;8.90;;
769;SDS011;368;48.698;9.116;2022-07-29T15:43:54;9.97;;;9.17;;
769;SDS011;368;48.698;9.116;2022-07-29T15:46:20;9.03;;;8.33;;
769;SDS011;368;48.698;9.116;2022-07-29T15:49:06;9.43;;;8.67;;
769;SDS011;368;48.698;9.116;2022-07-29T15:51:33;9.83;;;9.10;;
769;SDS011;368;48.698;9.116;2022-07-29T15:54:00;8.70;;;8.00;;
769;SDS011;368;48.698;9.116;2022-07-29T15:56:27;8.50;;;7.90;;
769;SDS011;368;48.698;9.116;2022-07-29T15:58:54;9.90;;;9.10;;
769;SDS011;368;48.698;9.116;2022-07-29T16:01:21;10.03;;;9.03;;
769;SDS011;368;48.698;9.116;2022-07-29T16:03:49;9.57;;;8.90;;
769;SDS011;368;48.698;9.116;2022-07-29T16:06:17;9.70;;;9.00;;
769;SDS011;368;48.698;9.116;2022-07-29T16:08:44;9.20;;;8.40;;
769;SDS011;368;48.698;9.116;2022-07-29T16:11:11;9.57;;;8.83;;
769;SDS011;368;48.698;9.116;2022-07-29T16:13:38;9.77;;;9.07;;
769;SDS011;368;48.698;9.116;2022-07-29T16:16:04;10.30;;;9.60;;
769;SDS011;368;48.698;9.116;2022-07-29T16:18:31;10.97;;;9.10;;
769;SDS011;368;48.698;9.116;2022-07-29T16:20:58;10.10;;;9.30;;